sensor_id;sensor_type;location;lat;lon;timestamp;P1;durP1;ratioP1;P2;durP2;ratioP2
3597;SDS011;1813;52.016;8.714;2022-10-03T00:02:12;24.53;;;4.43;;
3597;SDS011;1813;52.016;8.714;2022-10-03T00:05:01;16.63;;;4.07;;
3597;SDS011;1813;52.016;8.714;2022-10-03T00:08:00;19.60;;;4.33;;
3597;SDS011;1813;52.016;8.714;2022-10-03T00:10:46;23.83;;;4.47;;
3597;SDS011;1813;52.016;8.714;2022-10-03T00:13:31;25.70;;;4.73;;
3597;SDS011;1813;52.016;8.714;2022-10-03T00:16:16;30.43;;;4.40;;
3597;SDS011;1813;52.016;8.714;2022-10-03T00:18:57;18.53;;;3.90;;
3597;SDS011;1813;52.016;8.714;2022-10-03T00:21:40;24.87;;;4.50;;
3597;SDS011;1813;52.016;8.714;2022-10-03T00:24:27;17.43;;;4.30;;
3597;SDS011;1813;52.016;8.714;2022-10-03T00:27:09;22.00;;;5.20;;
3597;SDS011;1813;52.016;8.714;2022-10-03T00:29:54;23.20;;;4.10;;
3597;SDS011;1813;52.016;8.714;2022-10-03T00:32:40;27.13;;;4.50;;
3597;SDS011;1813;52.016;8.714;2022-10-03T00:35:43;27.03;;;4.10;;
3597;SDS011;1813;52.016;8.714;2022-10-03T00:38:50;22.30;;;4.20;;
3597;SDS011;1813;52.016;8.714;2022-10-03T00:41:47;19.83;;;4.23;;
3597;SDS011;1813;52.016;8.714;2022-10-03T00:48:00;27.67;;;4.80;;
3597;SDS011;1813;52.016;8.714;2022-10-03T00:51:10;22.60;;;4.80;;
3597;SDS011;1813;52.016;8.714;2022-10-03T00:54:19;23.70;;;5.40;;
3597;SDS011;1813;52.016;8.714;2022-10-03T00:57:13;24.03;;;5.10;;
3597;SDS011;1813;52.016;8.714;2022-10-03T01:00:10;19.07;;;4.70;;
3597;SDS011;1813;52.016;8.714;2022-10-03T01:03:18;17.60;;;4.70;;
3597;SDS011;1813;52.016;8.714;2022-10-03T01:06:15;27.70;;;4.67;;
3597;SDS011;1813;52.016;8.714;2022-10-03T01:09:10;28.90;;;5.10;;
3597;SDS011;1813;52.016;8.714;2022-10-03T01:11:57;19.13;;;4.23;;
3597;SDS011;1813;52.016;8.714;2022-10-03T01:14:57;21.03;;;4.50;;
3597;SDS011;1813;52.016;8.714;2022-10-03T01:17:56;24.90;;;4.33;;
3597;SDS011;1813;52.016;8.714;2022-10-03T01:20:56;33.67;;;5.03;;
3597;SDS011;1813;52.016;8.714;2022-10-03T01:27:04;23.33;;;4.83;;
3597;SDS011;1813;52.016;8.714;2022-10-03T01:29:45;29.13;;;5.10;;
3597;SDS011;1813;52.016;8.714;2022-10-03T01:32:42;24.83;;;4.77;;
3597;SDS011;1813;52.016;8.714;2022-10-03T01:35:26;20.07;;;4.30;;
3597;SDS011;1813;52.016;8.714;2022-10-03T01:38:11;31.17;;;5.10;;
3597;SDS011;1813;52.016;8.714;2022-10-03T01:40:53;19.10;;;4.87;;
3597;SDS011;1813;52.016;8.714;2022-10-03T01:43:40;31.47;;;5.87;;
3597;SDS011;1813;52.016;8.714;2022-10-03T01:46:32;23.07;;;5.73;;
3597;SDS011;1813;52.016;8.714;2022-10-03T01:49:10;25.40;;;6.43;;
3597;SDS011;1813;52.016;8.714;2022-10-03T01:51:58;19.77;;;5.60;;
3597;SDS011;1813;52.016;8.714;2022-10-03T01:54:49;32.37;;;7.60;;
3597;SDS011;1813;52.016;8.714;2022-10-03T01:57:33;20.97;;;6.50;;
3597;SDS011;1813;52.016;8.714;2022-10-03T02:00:14;27.10;;;6.70;;
3597;SDS011;1813;52.016;8.714;2022-10-03T02:02:59;21.70;;;6.33;;
3597;SDS011;1813;52.016;8.714;2022-10-03T02:05:46;33.17;;;7.37;;
3597;SDS011;1813;52.016;8.714;2022-10-03T02:08:32;27.07;;;6.53;;
3597;SDS011;1813;52.016;8.714;2022-10-03T02:11:25;23.63;;;5.90;;
3597;SDS011;1813;52.016;8.714;2022-10-03T02:14:07;32.30;;;7.97;;
3597;SDS011;1813;52.016;8.714;2022-10-03T02:16:54;27.97;;;7.30;;
3597;SDS011;1813;52.016;8.714;2022-10-03T02:19:43;20.73;;;7.53;;
3597;SDS011;1813;52.016;8.714;2022-10-03T02:22:28;22.57;;;7.50;;
3597;SDS011;1813;52.016;8.714;2022-10-03T02:25:14;26.00;;;7.03;;
3597;SDS011;1813;52.016;8.714;2022-10-03T02:34:24;19.50;;;7.37;;
3597;SDS011;1813;52.016;8.714;2022-10-03T02:37:30;31.07;;;7.80;;
3597;SDS011;1813;52.016;8.714;2022-10-03T02:56:21;28.93;;;8.30;;
3597;SDS011;1813;52.016;8.714;2022-10-03T02:59:37;23.00;;;7.90;;
3597;SDS011;1813;52.016;8.714;2022-10-03T03:03:00;26.13;;;8.07;;
3597;SDS011;1813;52.016;8.714;2022-10-03T03:15:41;21.40;;;7.53;;
3597;SDS011;1813;52.016;8.714;2022-10-03T03:18:37;29.37;;;8.30;;
3597;SDS011;1813;52.016;8.714;2022-10-03T03:21:22;29.43;;;8.50;;
3597;SDS011;1813;52.016;8.714;2022-10-03T03:24:21;24.97;;;7.90;;
3597;SDS011;1813;52.016;8.714;2022-10-03T03:30:17;23.50;;;7.50;;
3597;SDS011;1813;52.016;8.714;2022-10-03T03:33:04;20.97;;;7.53;;
3597;SDS011;1813;52.016;8.714;2022-10-03T03:35:45;26.23;;;8.50;;
3597;SDS011;1813;52.016;8.714;2022-10-03T03:38:30;27.93;;;9.70;;
3597;SDS011;1813;52.016;8.714;2022-10-03T03:41:20;28.47;;;8.97;;
3597;SDS011;1813;52.016;8.714;2022-10-03T03:44:13;27.47;;;7.53;;
3597;SDS011;1813;52.016;8.714;2022-10-03T03:47:39;27.70;;;8.93;;
3597;SDS011;1813;52.016;8.714;2022-10-03T03:50:29;27.47;;;9.00;;
3597;SDS011;1813;52.016;8.714;2022-10-03T03:53:28;35.60;;;8.60;;
3597;SDS011;1813;52.016;8.714;2022-10-03T03:56:19;27.37;;;7.00;;
3597;SDS011;1813;52.016;8.714;2022-10-03T03:59:17;21.13;;;7.27;;
3597;SDS011;1813;52.016;8.714;2022-10-03T04:02:14;19.20;;;6.60;;
3597;SDS011;1813;52.016;8.714;2022-10-03T04:05:03;16.40;;;6.40;;
3597;SDS011;1813;52.016;8.714;2022-10-03T04:07:51;22.53;;;7.00;;
3597;SDS011;1813;52.016;8.714;2022-10-03T04:10:50;24.43;;;8.33;;
3597;SDS011;1813;52.016;8.714;2022-10-03T04:13:50;25.50;;;8.50;;
3597;SDS011;1813;52.016;8.714;2022-10-03T04:16:46;23.30;;;8.47;;
3597;SDS011;1813;52.016;8.714;2022-10-03T04:20:03;17.63;;;6.87;;
3597;SDS011;1813;52.016;8.714;2022-10-03T04:22:52;21.17;;;7.30;;
3597;SDS011;1813;52.016;8.714;2022-10-03T04:25:45;21.93;;;6.90;;
3597;SDS011;1813;52.016;8.714;2022-10-03T04:28:50;19.63;;;6.67;;
3597;SDS011;1813;52.016;8.714;2022-10-03T04:31:56;15.07;;;6.27;;
3597;SDS011;1813;52.016;8.714;2022-10-03T04:34:49;18.93;;;6.30;;
3597;SDS011;1813;52.016;8.714;2022-10-03T04:37:50;16.37;;;5.90;;
3597;SDS011;1813;52.016;8.714;2022-10-03T04:40:40;14.17;;;6.60;;
3597;SDS011;1813;52.016;8.714;2022-10-03T04:43:23;18.43;;;6.70;;
3597;SDS011;1813;52.016;8.714;2022-10-03T04:46:15;16.23;;;6.87;;
3597;SDS011;1813;52.016;8.714;2022-10-03T04:48:59;23.67;;;7.37;;
3597;SDS011;1813;52.016;8.714;2022-10-03T04:51:45;19.33;;;6.70;;
3597;SDS011;1813;52.016;8.714;2022-10-03T04:54:32;13.03;;;5.93;;
3597;SDS011;1813;52.016;8.714;2022-10-03T04:57:25;12.70;;;5.30;;
3597;SDS011;1813;52.016;8.714;2022-10-03T05:00:19;13.00;;;5.43;;
3597;SDS011;1813;52.016;8.714;2022-10-03T05:03:02;11.33;;;5.50;;
3597;SDS011;1813;52.016;8.714;2022-10-03T05:05:47;13.30;;;5.80;;
3597;SDS011;1813;52.016;8.714;2022-10-03T05:08:39;14.00;;;5.60;;
3597;SDS011;1813;52.016;8.714;2022-10-03T05:11:23;17.40;;;5.30;;
3597;SDS011;1813;52.016;8.714;2022-10-03T05:14:15;15.20;;;6.37;;
3597;SDS011;1813;52.016;8.714;2022-10-03T05:17:06;17.40;;;6.80;;
3597;SDS011;1813;52.016;8.714;2022-10-03T05:19:52;20.63;;;6.67;;
3597;SDS011;1813;52.016;8.714;2022-10-03T05:22:43;22.30;;;7.10;;
3597;SDS011;1813;52.016;8.714;2022-10-03T05:28:20;13.80;;;6.70;;
3597;SDS011;1813;52.016;8.714;2022-10-03T05:31:05;13.80;;;6.43;;
3597;SDS011;1813;52.016;8.714;2022-10-03T05:33:50;19.43;;;6.77;;
3597;SDS011;1813;52.016;8.714;2022-10-03T05:36:34;19.67;;;6.20;;
3597;SDS011;1813;52.016;8.714;2022-10-03T05:39:28;18.80;;;6.93;;
3597;SDS011;1813;52.016;8.714;2022-10-03T05:42:18;20.07;;;7.30;;
3597;SDS011;1813;52.016;8.714;2022-10-03T05:45:18;18.20;;;7.47;;
3597;SDS011;1813;52.016;8.714;2022-10-03T05:48:13;17.50;;;7.37;;
3597;SDS011;1813;52.016;8.714;2022-10-03T05:50:56;16.57;;;7.10;;
3597;SDS011;1813;52.016;8.714;2022-10-03T05:53:55;16.50;;;7.20;;
3597;SDS011;1813;52.016;8.714;2022-10-03T05:56:59;18.50;;;6.93;;
3597;SDS011;1813;52.016;8.714;2022-10-03T06:02:53;16.90;;;7.20;;
3597;SDS011;1813;52.016;8.714;2022-10-03T06:09:01;16.27;;;7.80;;
3597;SDS011;1813;52.016;8.714;2022-10-03T06:11:57;15.60;;;7.23;;
3597;SDS011;1813;52.016;8.714;2022-10-03T06:17:52;16.70;;;7.10;;
3597;SDS011;1813;52.016;8.714;2022-10-03T06:20:42;21.10;;;7.33;;
3597;SDS011;1813;52.016;8.714;2022-10-03T06:30:15;20.30;;;7.10;;
3597;SDS011;1813;52.016;8.714;2022-10-03T06:33:14;20.20;;;8.00;;
3597;SDS011;1813;52.016;8.714;2022-10-03T06:36:19;16.57;;;7.07;;
3597;SDS011;1813;52.016;8.714;2022-10-03T06:39:14;16.90;;;6.97;;
3597;SDS011;1813;52.016;8.714;2022-10-03T06:45:46;15.50;;;6.70;;
3597;SDS011;1813;52.016;8.714;2022-10-03T06:52:12;18.07;;;7.27;;
3597;SDS011;1813;52.016;8.714;2022-10-03T06:55:17;20.57;;;6.93;;
3597;SDS011;1813;52.016;8.714;2022-10-03T06:58:33;13.70;;;7.20;;
3597;SDS011;1813;52.016;8.714;2022-10-03T07:08:40;20.40;;;7.30;;
3597;SDS011;1813;52.016;8.714;2022-10-03T07:18:22;18.17;;;8.33;;
3597;SDS011;1813;52.016;8.714;2022-10-03T07:25:11;16.40;;;6.93;;
3597;SDS011;1813;52.016;8.714;2022-10-03T07:28:20;17.10;;;6.43;;
3597;SDS011;1813;52.016;8.714;2022-10-03T07:31:13;16.77;;;6.30;;
3597;SDS011;1813;52.016;8.714;2022-10-03T07:37:29;15.40;;;5.43;;
3597;SDS011;1813;52.016;8.714;2022-10-03T07:46:50;14.03;;;4.80;;
3597;SDS011;1813;52.016;8.714;2022-10-03T07:52:51;14.23;;;4.90;;
3597;SDS011;1813;52.016;8.714;2022-10-03T07:55:52;10.87;;;5.03;;
3597;SDS011;1813;52.016;8.714;2022-10-03T08:01:36;13.10;;;5.27;;
3597;SDS011;1813;52.016;8.714;2022-10-03T08:04:31;10.10;;;5.10;;
3597;SDS011;1813;52.016;8.714;2022-10-03T08:07:28;11.73;;;4.67;;
3597;SDS011;1813;52.016;8.714;2022-10-03T08:10:23;11.70;;;4.57;;
3597;SDS011;1813;52.016;8.714;2022-10-03T08:13:11;10.60;;;4.77;;
3597;SDS011;1813;52.016;8.714;2022-10-03T08:16:08;12.67;;;4.93;;
3597;SDS011;1813;52.016;8.714;2022-10-03T08:22:04;14.37;;;5.07;;
3597;SDS011;1813;52.016;8.714;2022-10-03T08:24:55;15.23;;;5.10;;
3597;SDS011;1813;52.016;8.714;2022-10-03T08:27:57;16.33;;;4.90;;
3597;SDS011;1813;52.016;8.714;2022-10-03T08:30:54;10.80;;;4.50;;
3597;SDS011;1813;52.016;8.714;2022-10-03T08:33:56;10.60;;;4.80;;
3597;SDS011;1813;52.016;8.714;2022-10-03T08:37:03;14.23;;;4.47;;
3597;SDS011;1813;52.016;8.714;2022-10-03T08:46:45;14.83;;;3.83;;
3597;SDS011;1813;52.016;8.714;2022-10-03T08:50:02;13.50;;;4.00;;
3597;SDS011;1813;52.016;8.714;2022-10-03T08:53:03;11.00;;;4.33;;
3597;SDS011;1813;52.016;8.714;2022-10-03T08:55:58;14.33;;;4.50;;
3597;SDS011;1813;52.016;8.714;2022-10-03T08:58:54;11.50;;;4.53;;
3597;SDS011;1813;52.016;8.714;2022-10-03T09:01:50;14.30;;;8.70;;
3597;SDS011;1813;52.016;8.714;2022-10-03T09:18:28;8.27;;;3.93;;
3597;SDS011;1813;52.016;8.714;2022-10-03T09:21:28;7.97;;;4.20;;
3597;SDS011;1813;52.016;8.714;2022-10-03T09:25:21;8.80;;;4.40;;
3597;SDS011;1813;52.016;8.714;2022-10-03T09:33:01;10.83;;;4.10;;
3597;SDS011;1813;52.016;8.714;2022-10-03T09:39:07;7.43;;;3.87;;
3597;SDS011;1813;52.016;8.714;2022-10-03T09:42:19;16.67;;;4.83;;
3597;SDS011;1813;52.016;8.714;2022-10-03T09:45:11;15.33;;;8.30;;
3597;SDS011;1813;52.016;8.714;2022-10-03T09:48:12;11.37;;;4.67;;
3597;SDS011;1813;52.016;8.714;2022-10-03T09:51:07;7.80;;;3.80;;
3597;SDS011;1813;52.016;8.714;2022-10-03T09:57:24;9.73;;;4.43;;
3597;SDS011;1813;52.016;8.714;2022-10-03T10:00:22;8.30;;;4.23;;
3597;SDS011;1813;52.016;8.714;2022-10-03T10:03:01;9.33;;;4.40;;
3597;SDS011;1813;52.016;8.714;2022-10-03T10:06:00;13.27;;;4.60;;
3597;SDS011;1813;52.016;8.714;2022-10-03T10:15:21;8.47;;;4.40;;
3597;SDS011;1813;52.016;8.714;2022-10-03T10:21:44;9.40;;;4.50;;
3597;SDS011;1813;52.016;8.714;2022-10-03T10:31:08;8.07;;;4.20;;
3597;SDS011;1813;52.016;8.714;2022-10-03T10:40:42;10.10;;;4.37;;
3597;SDS011;1813;52.016;8.714;2022-10-03T10:50:01;15.63;;;4.50;;
3597;SDS011;1813;52.016;8.714;2022-10-03T10:56:16;9.60;;;3.97;;
3597;SDS011;1813;52.016;8.714;2022-10-03T11:05:38;7.50;;;3.90;;
3597;SDS011;1813;52.016;8.714;2022-10-03T11:21:07;11.60;;;3.60;;
3597;SDS011;1813;52.016;8.714;2022-10-03T11:30:23;12.37;;;4.17;;
3597;SDS011;1813;52.016;8.714;2022-10-03T11:39:31;18.33;;;3.70;;
3597;SDS011;1813;52.016;8.714;2022-10-03T11:42:17;13.43;;;3.53;;
3597;SDS011;1813;52.016;8.714;2022-10-03T11:44:57;9.70;;;3.00;;
3597;SDS011;1813;52.016;8.714;2022-10-03T11:47:36;15.20;;;3.90;;
3597;SDS011;1813;52.016;8.714;2022-10-03T11:53:29;9.53;;;3.30;;
3597;SDS011;1813;52.016;8.714;2022-10-03T11:56:15;15.97;;;3.63;;
3597;SDS011;1813;52.016;8.714;2022-10-03T11:58:53;11.00;;;3.07;;
3597;SDS011;1813;52.016;8.714;2022-10-03T12:01:38;11.60;;;2.90;;
3597;SDS011;1813;52.016;8.714;2022-10-03T12:04:23;11.33;;;3.00;;
3597;SDS011;1813;52.016;8.714;2022-10-03T12:07:04;11.17;;;2.90;;
3597;SDS011;1813;52.016;8.714;2022-10-03T12:10:14;10.27;;;2.63;;
3597;SDS011;1813;52.016;8.714;2022-10-03T12:12:57;12.80;;;2.73;;
3597;SDS011;1813;52.016;8.714;2022-10-03T12:15:32;9.07;;;3.30;;
3597;SDS011;1813;52.016;8.714;2022-10-03T12:18:11;8.00;;;3.03;;
3597;SDS011;1813;52.016;8.714;2022-10-03T12:20:56;12.73;;;4.20;;
3597;SDS011;1813;52.016;8.714;2022-10-03T12:23:42;3.77;;;1.90;;
3597;SDS011;1813;52.016;8.714;2022-10-03T12:26:32;7.90;;;2.20;;
3597;SDS011;1813;52.016;8.714;2022-10-03T12:29:15;8.50;;;2.10;;
3597;SDS011;1813;52.016;8.714;2022-10-03T12:31:53;6.93;;;1.97;;
3597;SDS011;1813;52.016;8.714;2022-10-03T12:34:37;6.93;;;2.13;;
3597;SDS011;1813;52.016;8.714;2022-10-03T12:37:32;8.93;;;2.23;;
3597;SDS011;1813;52.016;8.714;2022-10-03T12:40:13;14.10;;;2.13;;
3597;SDS011;1813;52.016;8.714;2022-10-03T12:42:54;10.03;;;2.10;;
3597;SDS011;1813;52.016;8.714;2022-10-03T12:45:34;8.07;;;2.10;;
3597;SDS011;1813;52.016;8.714;2022-10-03T12:48:18;10.90;;;1.97;;
3597;SDS011;1813;52.016;8.714;2022-10-03T12:51:07;5.17;;;1.93;;
3597;SDS011;1813;52.016;8.714;2022-10-03T12:53:51;6.20;;;2.07;;
3597;SDS011;1813;52.016;8.714;2022-10-03T12:56:34;8.70;;;2.30;;
3597;SDS011;1813;52.016;8.714;2022-10-03T12:59:24;6.20;;;2.00;;
3597;SDS011;1813;52.016;8.714;2022-10-03T13:02:22;8.67;;;2.37;;
3597;SDS011;1813;52.016;8.714;2022-10-03T13:07:59;8.17;;;1.90;;
3597;SDS011;1813;52.016;8.714;2022-10-03T13:10:37;5.60;;;1.97;;
3597;SDS011;1813;52.016;8.714;2022-10-03T13:13:18;10.13;;;2.50;;
3597;SDS011;1813;52.016;8.714;2022-10-03T13:16:05;9.40;;;2.10;;
3597;SDS011;1813;52.016;8.714;2022-10-03T13:18:49;7.63;;;2.00;;
3597;SDS011;1813;52.016;8.714;2022-10-03T13:21:35;6.70;;;1.90;;
3597;SDS011;1813;52.016;8.714;2022-10-03T13:24:25;6.47;;;1.87;;
3597;SDS011;1813;52.016;8.714;2022-10-03T13:27:09;5.23;;;1.63;;
3597;SDS011;1813;52.016;8.714;2022-10-03T13:29:49;7.57;;;1.93;;
3597;SDS011;1813;52.016;8.714;2022-10-03T13:32:28;8.17;;;2.07;;
3597;SDS011;1813;52.016;8.714;2022-10-03T13:35:06;7.17;;;1.90;;
3597;SDS011;1813;52.016;8.714;2022-10-03T13:41:08;12.03;;;1.60;;
3597;SDS011;1813;52.016;8.714;2022-10-03T13:43:49;3.93;;;1.50;;
3597;SDS011;1813;52.016;8.714;2022-10-03T13:46:32;8.73;;;2.00;;
3597;SDS011;1813;52.016;8.714;2022-10-03T13:49:18;8.93;;;1.90;;
3597;SDS011;1813;52.016;8.714;2022-10-03T13:52:03;9.97;;;2.00;;
3597;SDS011;1813;52.016;8.714;2022-10-03T13:54:57;6.73;;;1.40;;
3597;SDS011;1813;52.016;8.714;2022-10-03T13:57:41;8.73;;;2.07;;
3597;SDS011;1813;52.016;8.714;2022-10-03T14:00:18;5.80;;;1.97;;
3597;SDS011;1813;52.016;8.714;2022-10-03T14:03:01;5.07;;;1.60;;
3597;SDS011;1813;52.016;8.714;2022-10-03T14:05:50;7.50;;;1.70;;
3597;SDS011;1813;52.016;8.714;2022-10-03T14:11:34;5.70;;;2.00;;
3597;SDS011;1813;52.016;8.714;2022-10-03T14:17:24;4.83;;;1.70;;
3597;SDS011;1813;52.016;8.714;2022-10-03T14:20:08;5.00;;;2.10;;
3597;SDS011;1813;52.016;8.714;2022-10-03T14:23:03;9.37;;;2.90;;
3597;SDS011;1813;52.016;8.714;2022-10-03T14:25:50;7.27;;;2.53;;
3597;SDS011;1813;52.016;8.714;2022-10-03T14:28:31;6.17;;;2.10;;
3597;SDS011;1813;52.016;8.714;2022-10-03T14:31:15;12.73;;;4.90;;
3597;SDS011;1813;52.016;8.714;2022-10-03T14:33:57;6.87;;;2.40;;
3597;SDS011;1813;52.016;8.714;2022-10-03T14:36:39;8.50;;;2.87;;
3597;SDS011;1813;52.016;8.714;2022-10-03T14:39:22;7.40;;;2.10;;
3597;SDS011;1813;52.016;8.714;2022-10-03T14:42:11;8.13;;;2.00;;
3597;SDS011;1813;52.016;8.714;2022-10-03T14:45:05;9.23;;;2.13;;
3597;SDS011;1813;52.016;8.714;2022-10-03T14:47:47;4.10;;;1.87;;
3597;SDS011;1813;52.016;8.714;2022-10-03T14:50:23;5.67;;;1.90;;
3597;SDS011;1813;52.016;8.714;2022-10-03T14:52:57;5.30;;;1.63;;
3597;SDS011;1813;52.016;8.714;2022-10-03T14:55:38;9.00;;;1.90;;
3597;SDS011;1813;52.016;8.714;2022-10-03T14:58:16;10.13;;;2.37;;
3597;SDS011;1813;52.016;8.714;2022-10-03T15:00:53;4.37;;;1.50;;
3597;SDS011;1813;52.016;8.714;2022-10-03T15:03:34;7.70;;;2.00;;
3597;SDS011;1813;52.016;8.714;2022-10-03T15:06:20;8.40;;;2.00;;
3597;SDS011;1813;52.016;8.714;2022-10-03T15:09:04;5.53;;;2.00;;
3597;SDS011;1813;52.016;8.714;2022-10-03T15:11:46;5.63;;;2.03;;
3597;SDS011;1813;52.016;8.714;2022-10-03T15:14:24;8.50;;;2.30;;
3597;SDS011;1813;52.016;8.714;2022-10-03T15:17:02;7.87;;;2.00;;
3597;SDS011;1813;52.016;8.714;2022-10-03T15:19:38;5.77;;;2.07;;
3597;SDS011;1813;52.016;8.714;2022-10-03T15:22:19;7.77;;;2.10;;
3597;SDS011;1813;52.016;8.714;2022-10-03T15:25:01;6.67;;;2.50;;
3597;SDS011;1813;52.016;8.714;2022-10-03T15:27:41;10.73;;;2.30;;
3597;SDS011;1813;52.016;8.714;2022-10-03T15:30:20;13.73;;;2.23;;
3597;SDS011;1813;52.016;8.714;2022-10-03T15:32:55;6.33;;;2.30;;
3597;SDS011;1813;52.016;8.714;2022-10-03T15:35:38;9.90;;;1.97;;
3597;SDS011;1813;52.016;8.714;2022-10-03T15:38:15;7.80;;;2.10;;
3597;SDS011;1813;52.016;8.714;2022-10-03T15:41:03;5.90;;;1.93;;
3597;SDS011;1813;52.016;8.714;2022-10-03T15:43:43;5.93;;;2.00;;
3597;SDS011;1813;52.016;8.714;2022-10-03T15:46:28;8.40;;;2.43;;
3597;SDS011;1813;52.016;8.714;2022-10-03T15:49:05;9.53;;;2.50;;
3597;SDS011;1813;52.016;8.714;2022-10-03T15:51:45;9.23;;;2.43;;
3597;SDS011;1813;52.016;8.714;2022-10-03T15:54:23;8.70;;;2.70;;
3597;SDS011;1813;52.016;8.714;2022-10-03T15:56:59;5.23;;;2.20;;
3597;SDS011;1813;52.016;8.714;2022-10-03T15:59:37;10.17;;;2.10;;
3597;SDS011;1813;52.016;8.714;2022-10-03T16:02:16;6.30;;;2.20;;
3597;SDS011;1813;52.016;8.714;2022-10-03T16:04:53;7.30;;;2.13;;
3597;SDS011;1813;52.016;8.714;2022-10-03T16:07:30;8.70;;;1.90;;
3597;SDS011;1813;52.016;8.714;2022-10-03T16:10:11;8.27;;;2.17;;
3597;SDS011;1813;52.016;8.714;2022-10-03T16:12:56;9.40;;;2.83;;
3597;SDS011;1813;52.016;8.714;2022-10-03T16:15:48;11.70;;;2.77;;
3597;SDS011;1813;52.016;8.714;2022-10-03T16:18:44;9.50;;;2.37;;
3597;SDS011;1813;52.016;8.714;2022-10-03T16:21:30;7.10;;;2.60;;
3597;SDS011;1813;52.016;8.714;2022-10-03T16:24:15;7.70;;;2.53;;
3597;SDS011;1813;52.016;8.714;2022-10-03T16:27:04;8.47;;;2.40;;
3597;SDS011;1813;52.016;8.714;2022-10-03T16:29:43;9.77;;;2.50;;
3597;SDS011;1813;52.016;8.714;2022-10-03T16:32:24;9.97;;;2.70;;
3597;SDS011;1813;52.016;8.714;2022-10-03T16:35:02;8.67;;;2.83;;
3597;SDS011;1813;52.016;8.714;2022-10-03T16:37:52;7.87;;;2.30;;
3597;SDS011;1813;52.016;8.714;2022-10-03T16:40:27;8.70;;;2.40;;
3597;SDS011;1813;52.016;8.714;2022-10-03T16:43:01;14.53;;;2.73;;
3597;SDS011;1813;52.016;8.714;2022-10-03T16:45:41;12.03;;;2.83;;
3597;SDS011;1813;52.016;8.714;2022-10-03T16:48:21;7.13;;;2.70;;
3597;SDS011;1813;52.016;8.714;2022-10-03T16:51:16;8.50;;;2.63;;
3597;SDS011;1813;52.016;8.714;2022-10-03T16:53:51;10.27;;;2.60;;
3597;SDS011;1813;52.016;8.714;2022-10-03T16:56:27;8.23;;;2.70;;
3597;SDS011;1813;52.016;8.714;2022-10-03T16:59:10;6.63;;;2.73;;
3597;SDS011;1813;52.016;8.714;2022-10-03T17:01:47;7.13;;;2.60;;
3597;SDS011;1813;52.016;8.714;2022-10-03T17:04:24;11.30;;;3.40;;
3597;SDS011;1813;52.016;8.714;2022-10-03T17:07:02;12.43;;;3.73;;
3597;SDS011;1813;52.016;8.714;2022-10-03T17:09:38;7.47;;;2.47;;
3597;SDS011;1813;52.016;8.714;2022-10-03T17:12:16;10.90;;;2.57;;
3597;SDS011;1813;52.016;8.714;2022-10-03T17:14:55;11.83;;;2.97;;
3597;SDS011;1813;52.016;8.714;2022-10-03T17:17:35;9.40;;;2.80;;
3597;SDS011;1813;52.016;8.714;2022-10-03T17:20:18;14.60;;;3.10;;
3597;SDS011;1813;52.016;8.714;2022-10-03T17:23:02;11.67;;;3.47;;
3597;SDS011;1813;52.016;8.714;2022-10-03T17:25:40;14.43;;;3.20;;
3597;SDS011;1813;52.016;8.714;2022-10-03T17:28:25;10.77;;;2.73;;
3597;SDS011;1813;52.016;8.714;2022-10-03T17:31:03;15.27;;;3.37;;
3597;SDS011;1813;52.016;8.714;2022-10-03T17:33:39;9.40;;;3.70;;
3597;SDS011;1813;52.016;8.714;2022-10-03T17:36:26;16.60;;;4.30;;
3597;SDS011;1813;52.016;8.714;2022-10-03T17:39:16;14.30;;;6.70;;
3597;SDS011;1813;52.016;8.714;2022-10-03T17:42:03;11.83;;;5.57;;
3597;SDS011;1813;52.016;8.714;2022-10-03T17:44:50;11.87;;;4.10;;
3597;SDS011;1813;52.016;8.714;2022-10-03T17:47:31;9.13;;;3.77;;
3597;SDS011;1813;52.016;8.714;2022-10-03T17:50:11;11.80;;;3.90;;
3597;SDS011;1813;52.016;8.714;2022-10-03T17:52:50;15.27;;;4.60;;
3597;SDS011;1813;52.016;8.714;2022-10-03T17:55:25;11.17;;;4.30;;
3597;SDS011;1813;52.016;8.714;2022-10-03T17:58:02;9.53;;;4.13;;
3597;SDS011;1813;52.016;8.714;2022-10-03T18:00:38;10.27;;;4.27;;
3597;SDS011;1813;52.016;8.714;2022-10-03T18:03:32;11.23;;;3.93;;
3597;SDS011;1813;52.016;8.714;2022-10-03T18:06:32;9.40;;;3.80;;
3597;SDS011;1813;52.016;8.714;2022-10-03T18:09:18;9.33;;;3.53;;
3597;SDS011;1813;52.016;8.714;2022-10-03T18:12:00;12.47;;;3.93;;
3597;SDS011;1813;52.016;8.714;2022-10-03T18:18:18;9.27;;;3.30;;
3597;SDS011;1813;52.016;8.714;2022-10-03T18:21:09;12.07;;;3.57;;
3597;SDS011;1813;52.016;8.714;2022-10-03T18:23:49;10.27;;;3.47;;
3597;SDS011;1813;52.016;8.714;2022-10-03T18:26:42;7.47;;;3.10;;
3597;SDS011;1813;52.016;8.714;2022-10-03T18:29:18;8.80;;;3.47;;
3597;SDS011;1813;52.016;8.714;2022-10-03T18:32:02;15.20;;;3.30;;
3597;SDS011;1813;52.016;8.714;2022-10-03T18:34:43;10.67;;;3.40;;
3597;SDS011;1813;52.016;8.714;2022-10-03T18:40:24;12.40;;;3.80;;
3597;SDS011;1813;52.016;8.714;2022-10-03T18:42:59;15.03;;;3.30;;
3597;SDS011;1813;52.016;8.714;2022-10-03T18:45:36;9.20;;;3.50;;
3597;SDS011;1813;52.016;8.714;2022-10-03T18:48:16;10.60;;;3.20;;
3597;SDS011;1813;52.016;8.714;2022-10-03T18:50:56;13.50;;;3.43;;
3597;SDS011;1813;52.016;8.714;2022-10-03T18:53:34;9.93;;;3.20;;
3597;SDS011;1813;52.016;8.714;2022-10-03T18:56:09;9.50;;;3.23;;
3597;SDS011;1813;52.016;8.714;2022-10-03T18:58:46;11.40;;;3.80;;
3597;SDS011;1813;52.016;8.714;2022-10-03T19:01:27;16.00;;;3.27;;
3597;SDS011;1813;52.016;8.714;2022-10-03T19:04:08;10.80;;;3.87;;
3597;SDS011;1813;52.016;8.714;2022-10-03T19:06:44;10.77;;;3.67;;
3597;SDS011;1813;52.016;8.714;2022-10-03T19:09:21;8.83;;;3.40;;
3597;SDS011;1813;52.016;8.714;2022-10-03T19:11:59;11.97;;;3.47;;
3597;SDS011;1813;52.016;8.714;2022-10-03T19:14:46;12.43;;;3.77;;
3597;SDS011;1813;52.016;8.714;2022-10-03T19:17:32;10.67;;;4.00;;
3597;SDS011;1813;52.016;8.714;2022-10-03T19:20:14;12.13;;;4.70;;
3597;SDS011;1813;52.016;8.714;2022-10-03T19:22:56;9.00;;;4.60;;
3597;SDS011;1813;52.016;8.714;2022-10-03T19:25:34;16.37;;;4.43;;
3597;SDS011;1813;52.016;8.714;2022-10-03T19:28:12;14.13;;;5.00;;
3597;SDS011;1813;52.016;8.714;2022-10-03T19:30:55;12.00;;;4.60;;
3597;SDS011;1813;52.016;8.714;2022-10-03T19:33:36;15.60;;;4.80;;
3597;SDS011;1813;52.016;8.714;2022-10-03T19:36:15;17.53;;;5.17;;
3597;SDS011;1813;52.016;8.714;2022-10-03T19:38:51;9.50;;;4.40;;
3597;SDS011;1813;52.016;8.714;2022-10-03T19:41:26;10.67;;;4.33;;
3597;SDS011;1813;52.016;8.714;2022-10-03T19:44:02;16.93;;;4.77;;
3597;SDS011;1813;52.016;8.714;2022-10-03T19:49:43;15.93;;;4.17;;
3597;SDS011;1813;52.016;8.714;2022-10-03T19:52:23;16.70;;;5.00;;
3597;SDS011;1813;52.016;8.714;2022-10-03T19:55:00;10.93;;;4.40;;
3597;SDS011;1813;52.016;8.714;2022-10-03T19:57:40;14.23;;;4.80;;
3597;SDS011;1813;52.016;8.714;2022-10-03T20:00:19;12.17;;;4.90;;
3597;SDS011;1813;52.016;8.714;2022-10-03T20:03:03;14.13;;;5.67;;
3597;SDS011;1813;52.016;8.714;2022-10-03T20:05:39;11.90;;;5.60;;
3597;SDS011;1813;52.016;8.714;2022-10-03T20:08:20;14.07;;;5.50;;
3597;SDS011;1813;52.016;8.714;2022-10-03T20:11:01;11.37;;;5.07;;
3597;SDS011;1813;52.016;8.714;2022-10-03T20:13:42;11.63;;;5.17;;
3597;SDS011;1813;52.016;8.714;2022-10-03T20:16:18;16.03;;;5.70;;
3597;SDS011;1813;52.016;8.714;2022-10-03T20:19:02;10.33;;;5.00;;
3597;SDS011;1813;52.016;8.714;2022-10-03T20:21:39;18.67;;;5.23;;
3597;SDS011;1813;52.016;8.714;2022-10-03T20:24:15;7.80;;;5.03;;
3597;SDS011;1813;52.016;8.714;2022-10-03T20:26:54;21.20;;;4.93;;
3597;SDS011;1813;52.016;8.714;2022-10-03T20:29:41;14.77;;;6.40;;
3597;SDS011;1813;52.016;8.714;2022-10-03T20:32:19;17.00;;;7.53;;
3597;SDS011;1813;52.016;8.714;2022-10-03T20:34:53;10.13;;;5.43;;
3597;SDS011;1813;52.016;8.714;2022-10-03T20:37:37;16.90;;;5.50;;
3597;SDS011;1813;52.016;8.714;2022-10-03T20:40:24;10.77;;;4.80;;
3597;SDS011;1813;52.016;8.714;2022-10-03T20:43:05;13.33;;;6.10;;
3597;SDS011;1813;52.016;8.714;2022-10-03T20:45:57;9.10;;;5.10;;
3597;SDS011;1813;52.016;8.714;2022-10-03T20:48:44;14.73;;;5.17;;
3597;SDS011;1813;52.016;8.714;2022-10-03T20:51:37;15.20;;;5.50;;
3597;SDS011;1813;52.016;8.714;2022-10-03T20:54:13;16.23;;;5.20;;
3597;SDS011;1813;52.016;8.714;2022-10-03T20:56:52;11.93;;;5.57;;